ドゥシャンベ空港の過去48時間の天気

ドゥシャンベ空港 (Dushanbe)

現在時刻: 10/1 20:37 +05 (10/1 15:37 UTC) 以下の時間は現地時間です。

過去48時間のMETAR気象情報
時間 風向 風速(m/s) 視程 気温(℃) 湿度(%) 気圧(hPa) 天気現象
1 20:00 西北西 3 10km以上 18 37 1018
1 19:30 西 4 10km以上 18 39 1018
1 19:00 西 4 10km以上 19 37 1017
1 18:30 静穏 0 8000m 19 40 1017
1 18:00 1 10km以上 21 31 1016
1 17:30 2 10km以上 21 31 1016
1 17:00 不定 1 10km以上 22 33 1016
1 16:30 不定 2 10km以上 23 25 1017
1 16:00 不定 2 10km以上 23 25 1017
1 15:30 南南西 3 10km以上 24 27 1017
1 15:00 不定 2 10km以上 24 29 1017
1 14:30 不定 1 10km以上 23 29 1017
1 14:00 不定 2 10km以上 23 29 1017
1 13:30 不定 2 10km以上 23 31 1017
1 13:00 不定 2 10km以上 22 31 1017
1 12:30 不定 2 10km以上 21 33 1018
1 12:00 不定 2 10km以上 20 32 1018
1 11:30 不定 1 10km以上 19 35 1018
1 11:00 不定 1 10km以上 18 49 1018
1 10:30 不定 2 10km以上 17 48 1019
1 10:00 不定 2 10km以上 15 63 1019
1 09:30 不定 1 10km以上 14 67 1019
1 09:00 不定 1 9000m 12 71 1019
1 08:30 不定 1 9000m 11 71 1019
1 08:00 静穏 0 7000m 8 87 1019
1 07:30 静穏 0 6000m 7 93 1019
1 07:00 静穏 0 6000m 6 93 1019
1 06:30 1 9000m 5 93 1019
1 06:00 静穏 0 10km以上 7 87 1019
1 05:30 不定 1 10km以上 7 87 1019
1 05:00 静穏 0 7000m 6 93 1019
1 04:30 静穏 0 8000m 6 93 1019
1 04:00 静穏 0 7000m 6 93 1019
1 03:30 不定 1 10km以上 8 87 1019
1 03:00 東北東 2 10km以上 6 93 1020
1 02:30 1 7000m 6 93 1020
1 02:00 北東 1 10km以上 8 87 1020
1 01:30 不定 1 10km以上 7 87 1020
1 01:00 東北東 1 10km以上 8 87 1020
1 00:30 2 10km以上 8 81 1020
1 00:00 静穏 0 9000m 8 87 1021
30 23:30 1 7000m 8 87 1021
30 23:00 静穏 0 10km以上 8 87 1021
30 22:30 東南東 2 10km以上 9 81 1021
30 22:00 北東 2 10km以上 10 82 1021
30 21:30 北北東 2 10km以上 10 82 1022
30 21:00 不定 2 10km以上 10 82 1022
30 20:30 北東 1 10km以上 11 76 1022
30 20:00 北北東 2 10km以上 11 76 1022
30 19:30 不定 2 10km以上 11 76 1022
30 19:00 北東 2 10km以上 12 77 1022
30 18:30 2 10km以上 12 71 1022
30 18:00 南東 3 10km以上 13 67 1022
30 17:30 東南東 3 10km以上 13 67 1022
30 17:00 東南東 3 10km以上 14 63 1022
30 16:30 東南東 3 10km以上 14 63 1022
30 16:00 南東 3 10km以上 14 67 1023
30 15:30 4 10km以上 14 67 1022
30 15:00 東南東 3 10km以上 14 67 1022
30 14:30 3 10km以上 13 67 1023
30 14:00 3 10km以上 13 67 1023
30 13:30 4 10km以上 12 77 1023
30 13:00 4 10km以上 11 82 1023
30 12:30 東南東 3 10km以上 11 82 1023
30 12:00 不定 1 10km以上 11 76 1023
30 11:30 静穏 0 10km以上 11 82 1023
30 11:00 不定 2 10km以上 11 82 1023
30 10:30 西 3 10km以上 10 87 1023 弱いしゅう雨
30 10:00 西 3 10km以上 10 87 1023 弱いしゅう雨
30 09:30 不定 2 10km以上 11 82 1023 弱いしゅう雨
30 09:00 不定 2 10km以上 11 87 1023 弱いしゅう雨
30 08:30 不定 2 10km以上 11 82 1022 弱いしゅう雨
30 08:00 静穏 0 10km以上 11 82 1022
30 07:30 静穏 0 10km以上 11 76 1022
30 07:00 静穏 0 10km以上 11 82 1022
30 06:30 静穏 0 10km以上 11 82 1022
30 06:00 南南西 1 10km以上 10 94 1022
30 05:30 不定 2 10km以上 11 87 1021
30 05:00 1 9000m 11 82 1021
30 04:30 2 10km以上 11 82 1021
30 04:00 2 10km以上 11 82 1021
30 03:30 2 10km以上 11 82 1021
30 03:00 3 10km以上 11 82 1021
30 02:30 2 10km以上 10 94 1021
30 02:00 2 10km以上 10 94 1022 弱いしゅう雨
30 01:30 東南東 3 10km以上 11 87 1022 弱いしゅう雨
30 01:00 2 9000m 11 87 1022 弱いしゅう雨
30 00:30 不定 1 9000m 11 87 1022 弱いしゅう雨
30 00:00 不定 2 8000m 11 87 1022 弱いしゅう雨
29 23:30 南東 2 10km以上 11 87 1022 弱いしゅう雨
29 23:00 不定 1 10km以上 12 71 1022 弱いしゅう雨
29 22:30 西 3 10km以上 12 71 1022 弱いしゅう雨
29 22:00 西 3 10km以上 12 67 1022 弱いしゅう雨
29 21:30 西 5 10km以上 14 51 1022
29 21:00 西 7 10km以上 14 51 1021
UTDD 011500Z 29003MPS 9999 NSC 18/03 Q1018 R09/D NOSIG RMK QFE695/0927
UTDD 011430Z 28004MPS 9999 NSC 18/04 Q1018 R09/D NOSIG RMK QFE695/0926
UTDD 011400Z 28004MPS 9999 NSC 19/04 Q1017 R09/D NOSIG RMK QFE694/0926
UTDD 011330Z 00000MPS 8000 NSC 19/05 Q1017 R09/D NOSIG RMK QFE694/0925
UTDD 011300Z 36001MPS 9999 NSC 21/03 Q1016 R09/D NOSIG RMK QFE694/0925
UTDD 011230Z 35002MPS 9999 NSC 21/03 Q1016 R09/D NOSIG RMK QFE694/0925
UTDD 011200Z VRB01MPS 9999 NSC 22/05 Q1016 R09/D NOSIG RMK QFE694/0925
UTDD 011130Z VRB02MPS 9999 NSC 23/02 Q1017 R09/D NOSIG RMK QFE694/0925
UTDD 011100Z VRB02MPS 9999 NSC 23/02 Q1017 R09/D NOSIG RMK QFE694/0925
UTDD 011030Z 21003MPS 170V230 9999 NSC 24/04 Q1017 R09/D NOSIG RMK QFE694/0925
UTDD 011000Z VRB02MPS 9999 NSC 24/05 Q1017 R09/D NOSIG RMK QFE694/0925
UTDD 010930Z VRB01MPS 9999 NSC 23/04 Q1017 R09/D NOSIG RMK QFE694/0925
UTDD 010900Z VRB02MPS 9999 NSC 23/04 Q1017 R09/D NOSIG RMK QFE694/0926
UTDD 010830Z VRB02MPS 9999 NSC 23/05 Q1017 R09/D NOSIG RMK QFE694/0926
UTDD 010800Z VRB02MPS 9999 NSC 22/04 Q1017 R09/D NOSIG RMK QFE695/0926
UTDD 010730Z VRB02MPS 9999 NSC 21/04 Q1018 R09/D NOSIG RMK QFE695/0926
UTDD 010700Z VRB02MPS 9999 NSC 20/03 Q1018 R09/D NOSIG RMK QFE695/0926
UTDD 010630Z VRB01MPS 9999 NSC 19/03 Q1018 R09/D NOSIG RMK QFE695/0927
UTDD 010600Z VRB01MPS 9999 NSC 18/07 Q1018 R09/D NOSIG RMK QFE695/0927
UTDD 010530Z VRB02MPS 9999 NSC 17/06 Q1019 R09/CLRD// NOSIG RMK QFE695/0927
UTDD 010500Z VRB02MPS 9999 NSC 15/08 Q1019 R09/CLRD// NOSIG RMK QFE695/0927
UTDD 010430Z VRB01MPS 9999 NSC 14/08 Q1019 R09/D NOSIG RMK QFE696/0927
UTDD 010400Z VRB01MPS 9000 NSC 12/07 Q1019 R09/D NOSIG RMK QFE696/0928
UTDD 010330Z VRB01MPS 9000 NSC 11/06 Q1019 R09/D NOSIG RMK QFE696/0928
UTDD 010300Z 00000MPS 7000 NSC 08/06 Q1019 R09/D NOSIG RMK QFE696/0928
UTDD 010230Z 00000MPS 6000 NSC 07/06 Q1019 R09/D NOSIG RMK QFE696/0928
UTDD 010200Z 00000MPS 6000 NSC 06/05 Q1019 R09/D NOSIG RMK QFE696/0928
UTDD 010130Z 17001MPS 9000 NSC 05/04 Q1019 R09/D NOSIG RMK QFE696/0927
UTDD 010100Z 00000MPS 9999 NSC 07/05 Q1019 R09/D NOSIG RMK QFE696/0928
UTDD 010030Z VRB01MPS 9999 NSC 07/05 Q1019 R09/D NOSIG RMK QFE696/0928
UTDD 010000Z 00000MPS 7000 NSC 06/05 Q1019 R09/D NOSIG RMK QFE696/0928
UTDD 302330Z 00000MPS 8000 NSC 06/05 Q1019 R09/D NOSIG RMK QFE696/0928
UTDD 302300Z 00000MPS 7000 NSC 06/05 Q1019 R09/D NOSIG RMK QFE696/0928
UTDD 302230Z VRB01MPS 9999 NSC 08/06 Q1019 R09/D NOSIG RMK QFE696/0928
UTDD 302200Z 07002MPS 9999 NSC 06/05 Q1020 R09/D NOSIG RMK QFE696/0928
UTDD 302130Z 10001MPS 7000 NSC 06/05 Q1020 R09/D NOSIG RMK QFE696/0928
UTDD 302100Z 04001MPS 9999 NSC 08/06 Q1020 R09/D NOSIG RMK QFE696/0928
UTDD 302030Z VRB01MPS 9999 NSC 07/05 Q1020 R09/D NOSIG RMK QFE696/0929
UTDD 302000Z 06001MPS 9999 NSC 08/06 Q1020 R09/D NOSIG RMK QFE696/0929
UTDD 301930Z 08002MPS 9999 NSC 08/05 Q1020 R09/D NOSIG RMK QFE697/0929
UTDD 301900Z 00000MPS 9000 NSC 08/06 Q1021 R09/D NOSIG RMK QFE697/0929
UTDD 301830Z 08001MPS 7000 NSC 08/06 Q1021 R09/D NOSIG RMK QFE697/0929
UTDD 301800Z 00000MPS 9999 NSC 08/06 Q1021 R09/D NOSIG RMK QFE697/0929
UTDD 301730Z 11002MPS 9999 NSC 09/06 Q1021 R09/CLRD// NOSIG RMK QFE697/0930
UTDD 301700Z 04002MPS 9999 NSC 10/07 Q1021 R09/D NOSIG RMK QFE697/0930
UTDD 301630Z 03002MPS 9999 NSC 10/07 Q1022 R09/D NOSIG RMK QFE697/0930
UTDD 301600Z VRB02MPS 9999 NSC 10/07 Q1022 R09/D NOSIG RMK QFE698/0930
UTDD 301530Z 04001MPS 9999 NSC 11/07 Q1022 R09/D NOSIG RMK QFE698/0930
UTDD 301500Z 03002MPS 9999 NSC 11/07 Q1022 R09/D NOSIG RMK QFE698/0930
UTDD 301430Z VRB02MPS 9999 NSC 11/07 Q1022 R09/D NOSIG RMK QFE698/0930
UTDD 301400Z 05002MPS 9999 FEW066 12/08 Q1022 R09/D NOSIG RMK QFE698/0930
UTDD 301330Z 10002MPS 9999 FEW066 12/07 Q1022 R09/D NOSIG RMK QFE698/0930
UTDD 301300Z 13003MPS 9999 FEW060CB 13/07 Q1022 R09/D NOSIG RMK QFE698/0931
UTDD 301230Z 12003MPS 9999 FEW060CB 13/07 Q1022 R09/D NOSIG RMK QFE698/0930
UTDD 301200Z 11003MPS 9999 FEW060CB 14/07 Q1022 R09/D NOSIG RMK QFE698/0931
UTDD 301130Z 11003MPS 070V150 9999 FEW060CB 14/07 Q1022 R09/D NOSIG RMK QFE698/0931
UTDD 301100Z 13003MPS 090V150 9999 FEW023CB 14/08 Q1023 R09/19//60 NOSIG RMK QFE698/0931
UTDD 301030Z 10004MPS 9999 FEW022CB SCT080 14/08 Q1022 R09/19//60 NOSIG RMK QFE698/0931
UTDD 301000Z 11003MPS 060V140 9999 FEW021CB BKN082 14/08 Q1022 R09/19//60 NOSIG RMK QFE698/0931
UTDD 300930Z 10003MPS 080V140 9999 SCT037CB OVC085 13/07 Q1023 R09/19//60 NOSIG RMK QFE698/0931
UTDD 300900Z 10003MPS 060V120 9999 SCT036CB OVC045 13/07 Q1023 R09/19//60 NOSIG RMK QFE698/0931
UTDD 300830Z 09004MPS 9999 SCT032CB OVC040 12/08 Q1023 R09/19//60 NOSIG RMK QFE698/0931
UTDD 300800Z 09004MPS 9999 SCT039CB SCT039 11/08 Q1023 R09/19//60 NOSIG RMK QFE698/0931
UTDD 300730Z 11003MPS 9999 SCT037CB SCT037 11/08 Q1023 R09/29//50 NOSIG RMK QFE699/0931
UTDD 300700Z VRB01MPS 9999 SCT035CB SCT035 11/07 Q1023 R09/29//50 NOSIG RMK QFE698/0931
UTDD 300630Z 00000MPS 9999 BKN039CB OVC045 11/08 Q1023 R09/29//50 NOSIG RMK QFE698/0931
UTDD 300600Z VRB02MPS 9999 SCT038CB OVC045 11/08 Q1023 R09/29//50 NOSIG RMK QFE698/0931
UTDD 300530Z 28003MPS 260V330 9999 -SHRA BKN033CB OVC047 10/08 Q1023 R09/29//50 NOSIG RMK QFE699/0931
UTDD 300500Z 26003MPS 9999 -SHRA SCT029CB OVC038 10/08 Q1023 R09/29//50 NOSIG RMK QFE698/0931
UTDD 300430Z VRB02MPS 9999 -SHRA BKN026CB OVC034 11/08 Q1023 R09/19//60 NOSIG RMK QFE698/0931
UTDD 300400Z VRB02MPS 9999 -SHRA BKN032CB OVC037 11/09 Q1023 R09/19//60 NOSIG RMK QFE698/0931
UTDD 300330Z VRB02MPS 9999 -SHRA BKN033CB OVC043 11/08 Q1022 R09/19//60 NOSIG RMK QFE698/0931
UTDD 300300Z 00000MPS 9999 FEW034CB BKN048 OVC056 11/08 Q1022 R09/19//60 NOSIG RMK QFE698/0930
UTDD 300230Z 00000MPS 9999 FEW044CB OVC050 11/07 Q1022 R09/19//60 NOSIG RMK QFE698/0930
UTDD 300200Z 00000MPS 9999 FEW042CB OVC051 11/08 Q1022 R09/19//60 NOSIG RMK QFE697/0930
UTDD 300130Z 00000MPS 9999 FEW047CB SCT047 11/08 Q1022 R09/19//60 NOSIG RMK QFE697/0930
UTDD 300100Z 20001MPS 9999 SCT048CB BKN058 OVC067 10/09 Q1022 R09/19//60 NOSIG RMK QFE697/0930
UTDD 300030Z VRB02MPS 9999 FEW049CB BKN056 OVC069 11/09 Q1021 R09/19//60 NOSIG RMK QFE697/0930
UTDD 300000Z 08001MPS 9000 FEW056CB OVC080 11/08 Q1021 R09/19//60 NOSIG RMK QFE697/0929
UTDD 292330Z 10002MPS 9999 FEW036CB OVC079 11/08 Q1021 R09/19//60 NOSIG RMK QFE697/0929
UTDD 292300Z 09002MPS 9999 FEW062CB OVC079 11/08 Q1021 R09/29//50 NOSIG RMK QFE697/0929
UTDD 292230Z 09002MPS 9999 FEW044CB OVC077 11/08 Q1021 R09/29//50 NOSIG RMK QFE697/0929
UTDD 292200Z 09003MPS 9999 FEW048CB OVC077 11/08 Q1021 R09/29//50 NOSIG RMK QFE697/0930
UTDD 292130Z 08002MPS 9999 SCT046CB OVC080 10/09 Q1021 R09/29//50 NOSIG RMK QFE697/0930
UTDD 292100Z 09002MPS 9999 -SHRA SCT041CB OVC082 10/09 Q1022 R09/29//50 NOSIG RMK QFE698/0930
UTDD 292030Z 11003MPS 9999 -SHRA FEW038 BKN046CB OVC082 11/09 Q1022 R09/29//50 NOSIG RMK QFE698/0930
UTDD 292000Z 10002MPS 9000 -SHRA BKN032CB OVC045 11/09 Q1022 R09/29//50 NOSIG RMK QFE698/0930
UTDD 291930Z VRB01MPS 9000 -SHRA BKN036CB OVC047 11/09 Q1022 R09/29//50 NOSIG RMK QFE698/0930
UTDD 291900Z VRB02MPS 8000 -SHRA BKN045CB 11/09 Q1022 R09/29//50 NOSIG RMK QFE698/0930
UTDD 291830Z 14002MPS 9999 -SHRA BKN053CB BKN068 11/09 Q1022 R09/29//50 NOSIG RMK QFE698/0930
UTDD 291800Z VRB01MPS 9999 -SHRA BKN057CB OVC066 12/07 Q1022 R27/29//50 TEMPO 27007MPS RMK QFE699/0931
UTDD 291730Z 28003MPS 9999 -SHRA BKN055CB OVC062 12/07 Q1022 R27/29//50 TEMPO 27007MPS RMK QFE699/0932
UTDD 291700Z 26003MPS 210V280 9999 -SHRA SCT062CB BKN066 12/06 Q1022 R27/D TEMPO 27007MPS RMK QFE698/0931
UTDD 291630Z 27005MPS 9999 BKN066CB OVC084 14/04 Q1022 R27/D TEMPO 27007G12MPS RMK QFE698/0931
UTDD 291600Z 27007MPS 9999 SCT066CB BKN074 OVC085 14/04 Q1021 R27/D TEMPO 27008G13MPS RMK QFE698/0931